sensor_id;sensor_type;location;lat;lon;timestamp;pressure;altitude;pressure_sealevel;temperature;humidity
45872;BME280;32333;55.844;-3.210;2024-01-15T00:01:51;98983.67;;;-3.02;100.00
45872;BME280;32333;55.844;-3.210;2024-01-15T00:04:18;98993.69;;;-3.52;100.00
45872;BME280;32333;55.844;-3.210;2024-01-15T00:06:46;98997.20;;;-3.27;100.00
45872;BME280;32333;55.844;-3.210;2024-01-15T00:09:14;98997.30;;;-3.30;100.00
45872;BME280;32333;55.844;-3.210;2024-01-15T00:11:42;98996.70;;;-3.24;100.00
45872;BME280;32333;55.844;-3.210;2024-01-15T00:14:36;99000.09;;;-3.66;100.00
45872;BME280;32333;55.844;-3.210;2024-01-15T00:17:04;98994.21;;;-3.37;100.00
45872;BME280;32333;55.844;-3.210;2024-01-15T00:19:31;98994.21;;;-3.88;100.00
45872;BME280;32333;55.844;-3.210;2024-01-15T00:22:00;98990.53;;;-3.89;100.00
45872;BME280;32333;55.844;-3.210;2024-01-15T00:24:28;98989.71;;;-3.79;100.00
45872;BME280;32333;55.844;-3.210;2024-01-15T00:26:55;98983.61;;;-4.45;100.00
45872;BME280;32333;55.844;-3.210;2024-01-15T00:29:23;98981.91;;;-4.04;100.00
45872;BME280;32333;55.844;-3.210;2024-01-15T00:31:51;98971.90;;;-4.65;100.00
45872;BME280;32333;55.844;-3.210;2024-01-15T00:34:18;98971.28;;;-3.72;100.00
45872;BME280;32333;55.844;-3.210;2024-01-15T00:36:46;98971.87;;;-4.58;100.00
45872;BME280;32333;55.844;-3.210;2024-01-15T00:39:14;98974.52;;;-4.18;100.00
45872;BME280;32333;55.844;-3.210;2024-01-15T00:41:42;98978.56;;;-3.64;100.00
45872;BME280;32333;55.844;-3.210;2024-01-15T00:44:35;98975.64;;;-3.03;100.00
45872;BME280;32333;55.844;-3.210;2024-01-15T00:47:03;98978.62;;;-4.17;100.00
45872;BME280;32333;55.844;-3.210;2024-01-15T00:49:31;98981.77;;;-3.59;100.00
45872;BME280;32333;55.844;-3.210;2024-01-15T00:52:00;98977.57;;;-4.02;100.00
45872;BME280;32333;55.844;-3.210;2024-01-15T00:54:27;98980.42;;;-4.10;100.00
45872;BME280;32333;55.844;-3.210;2024-01-15T00:56:56;98977.43;;;-4.34;100.00
45872;BME280;32333;55.844;-3.210;2024-01-15T00:59:25;98972.11;;;-4.01;100.00
45872;BME280;32333;55.844;-3.210;2024-01-15T01:01:52;98970.31;;;-4.96;100.00
45872;BME280;32333;55.844;-3.210;2024-01-15T01:04:20;98961.14;;;-4.21;100.00
45872;BME280;32333;55.844;-3.210;2024-01-15T01:06:48;98962.29;;;-4.23;100.00
45872;BME280;32333;55.844;-3.210;2024-01-15T01:09:16;98964.86;;;-4.54;100.00
45872;BME280;32333;55.844;-3.210;2024-01-15T01:11:43;98968.37;;;-3.78;100.00
45872;BME280;32333;55.844;-3.210;2024-01-15T01:14:35;98964.66;;;-3.94;100.00
45872;BME280;32333;55.844;-3.210;2024-01-15T01:17:03;98958.29;;;-4.60;100.00
45872;BME280;32333;55.844;-3.210;2024-01-15T01:19:31;98961.23;;;-4.72;100.00
45872;BME280;32333;55.844;-3.210;2024-01-15T01:22:00;98962.06;;;-3.53;100.00
45872;BME280;32333;55.844;-3.210;2024-01-15T01:24:27;98954.06;;;-4.28;100.00
45872;BME280;32333;55.844;-3.210;2024-01-15T01:26:55;98958.43;;;-4.30;100.00
45872;BME280;32333;55.844;-3.210;2024-01-15T01:29:23;98946.03;;;-4.15;100.00
45872;BME280;32333;55.844;-3.210;2024-01-15T01:31:51;98950.67;;;-3.94;100.00
45872;BME280;32333;55.844;-3.210;2024-01-15T01:34:18;98953.30;;;-4.52;100.00
45872;BME280;32333;55.844;-3.210;2024-01-15T01:36:46;98948.42;;;-3.58;100.00
45872;BME280;32333;55.844;-3.210;2024-01-15T01:39:15;98947.41;;;-4.49;100.00
45872;BME280;32333;55.844;-3.210;2024-01-15T01:41:42;98944.48;;;-4.47;100.00
45872;BME280;32333;55.844;-3.210;2024-01-15T01:44:36;98945.63;;;-3.75;100.00
45872;BME280;32333;55.844;-3.210;2024-01-15T01:47:04;98944.48;;;-4.00;100.00
45872;BME280;32333;55.844;-3.210;2024-01-15T01:49:33;98946.08;;;-4.23;100.00
45872;BME280;32333;55.844;-3.210;2024-01-15T01:52:02;98945.38;;;-4.23;100.00
45872;BME280;32333;55.844;-3.210;2024-01-15T01:54:32;98947.70;;;-4.50;100.00
45872;BME280;32333;55.844;-3.210;2024-01-15T01:57:02;98948.48;;;-3.80;100.00
45872;BME280;32333;55.844;-3.210;2024-01-15T01:59:30;98938.91;;;-4.20;100.00
45872;BME280;32333;55.844;-3.210;2024-01-15T02:02:00;98943.41;;;-4.28;100.00
45872;BME280;32333;55.844;-3.210;2024-01-15T02:04:30;98940.54;;;-4.53;100.00
45872;BME280;32333;55.844;-3.210;2024-01-15T02:06:59;98945.61;;;-4.73;100.00
45872;BME280;32333;55.844;-3.210;2024-01-15T02:09:27;98942.47;;;-3.86;100.00
45872;BME280;32333;55.844;-3.210;2024-01-15T02:11:57;98942.72;;;-4.25;100.00
45872;BME280;32333;55.844;-3.210;2024-01-15T02:14:36;98940.05;;;-4.79;100.00
45872;BME280;32333;55.844;-3.210;2024-01-15T02:17:04;98939.97;;;-4.59;100.00
45872;BME280;32333;55.844;-3.210;2024-01-15T02:19:31;98948.19;;;-4.68;100.00
45872;BME280;32333;55.844;-3.210;2024-01-15T02:22:00;98953.88;;;-5.23;100.00
45872;BME280;32333;55.844;-3.210;2024-01-15T02:24:28;98957.03;;;-4.95;100.00
45872;BME280;32333;55.844;-3.210;2024-01-15T02:26:55;98956.52;;;-4.39;100.00
45872;BME280;32333;55.844;-3.210;2024-01-15T02:29:23;98953.43;;;-3.76;100.00
45872;BME280;32333;55.844;-3.210;2024-01-15T02:31:51;98953.16;;;-3.39;100.00
45872;BME280;32333;55.844;-3.210;2024-01-15T02:34:19;98957.07;;;-2.89;100.00
45872;BME280;32333;55.844;-3.210;2024-01-15T02:36:46;98958.36;;;-4.40;100.00
45872;BME280;32333;55.844;-3.210;2024-01-15T02:39:15;98968.43;;;-3.78;100.00
45872;BME280;32333;55.844;-3.210;2024-01-15T02:41:43;98971.00;;;-3.68;100.00
45872;BME280;32333;55.844;-3.210;2024-01-15T02:44:36;98968.83;;;-3.68;100.00
45872;BME280;32333;55.844;-3.210;2024-01-15T02:47:04;98970.05;;;-3.56;100.00
45872;BME280;32333;55.844;-3.210;2024-01-15T02:49:31;98977.94;;;-4.24;100.00
45872;BME280;32333;55.844;-3.210;2024-01-15T02:52:00;98976.12;;;-3.93;100.00
45872;BME280;32333;55.844;-3.210;2024-01-15T02:54:27;98965.70;;;-2.90;100.00
45872;BME280;32333;55.844;-3.210;2024-01-15T02:56:55;98969.04;;;-3.37;100.00
45872;BME280;32333;55.844;-3.210;2024-01-15T02:59:23;98967.06;;;-3.33;100.00
45872;BME280;32333;55.844;-3.210;2024-01-15T03:01:51;98964.19;;;-2.84;100.00
45872;BME280;32333;55.844;-3.210;2024-01-15T03:04:18;98960.39;;;-3.45;100.00
45872;BME280;32333;55.844;-3.210;2024-01-15T03:06:46;98962.93;;;-4.55;100.00
45872;BME280;32333;55.844;-3.210;2024-01-15T03:09:15;98966.46;;;-3.65;100.00
45872;BME280;32333;55.844;-3.210;2024-01-15T03:11:43;98970.21;;;-3.81;100.00
45872;BME280;32333;55.844;-3.210;2024-01-15T03:14:36;98963.34;;;-3.88;100.00
45872;BME280;32333;55.844;-3.210;2024-01-15T03:17:04;98954.88;;;-3.25;100.00
45872;BME280;32333;55.844;-3.210;2024-01-15T03:19:34;98959.12;;;-3.40;100.00
45872;BME280;32333;55.844;-3.210;2024-01-15T03:22:02;98950.92;;;-3.07;100.00
45872;BME280;32333;55.844;-3.210;2024-01-15T03:24:31;98948.82;;;-2.73;100.00
45872;BME280;32333;55.844;-3.210;2024-01-15T03:27:00;98954.41;;;-3.64;100.00
45872;BME280;32333;55.844;-3.210;2024-01-15T03:29:28;98957.79;;;-4.31;100.00
45872;BME280;32333;55.844;-3.210;2024-01-15T03:31:55;98954.38;;;-3.68;100.00
45872;BME280;32333;55.844;-3.210;2024-01-15T03:34:23;98956.12;;;-3.17;100.00
45872;BME280;32333;55.844;-3.210;2024-01-15T03:36:51;98959.45;;;-4.85;100.00
45872;BME280;32333;55.844;-3.210;2024-01-15T03:39:19;98954.93;;;-4.60;100.00
45872;BME280;32333;55.844;-3.210;2024-01-15T03:41:46;98959.42;;;-3.65;100.00
45872;BME280;32333;55.844;-3.210;2024-01-15T03:44:36;98957.10;;;-4.70;100.00
45872;BME280;32333;55.844;-3.210;2024-01-15T03:47:04;98962.76;;;-4.41;100.00
45872;BME280;32333;55.844;-3.210;2024-01-15T03:49:31;98958.62;;;-4.24;100.00
45872;BME280;32333;55.844;-3.210;2024-01-15T03:52:00;98958.37;;;-5.28;100.00
45872;BME280;32333;55.844;-3.210;2024-01-15T03:54:28;98962.78;;;-5.00;100.00
45872;BME280;32333;55.844;-3.210;2024-01-15T03:56:56;98956.50;;;-4.76;100.00
45872;BME280;32333;55.844;-3.210;2024-01-15T03:59:24;98957.76;;;-4.71;100.00
45872;BME280;32333;55.844;-3.210;2024-01-15T04:01:51;98962.14;;;-4.26;100.00
45872;BME280;32333;55.844;-3.210;2024-01-15T04:04:19;98957.95;;;-4.77;100.00
45872;BME280;32333;55.844;-3.210;2024-01-15T04:06:47;98953.34;;;-4.33;100.00
45872;BME280;32333;55.844;-3.210;2024-01-15T04:09:16;98953.41;;;-4.51;100.00
45872;BME280;32333;55.844;-3.210;2024-01-15T04:11:43;98948.91;;;-4.62;100.00
45872;BME280;32333;55.844;-3.210;2024-01-15T04:14:36;98952.24;;;-4.57;100.00
45872;BME280;32333;55.844;-3.210;2024-01-15T04:17:04;98952.17;;;-5.60;100.00
45872;BME280;32333;55.844;-3.210;2024-01-15T04:19:31;98951.26;;;-4.57;100.00
45872;BME280;32333;55.844;-3.210;2024-01-15T04:22:00;98954.50;;;-4.57;100.00
45872;BME280;32333;55.844;-3.210;2024-01-15T04:24:28;98951.56;;;-5.03;100.00
45872;BME280;32333;55.844;-3.210;2024-01-15T04:26:56;98950.92;;;-4.92;100.00
45872;BME280;32333;55.844;-3.210;2024-01-15T04:29:23;98944.71;;;-4.31;100.00
45872;BME280;32333;55.844;-3.210;2024-01-15T04:31:52;98944.21;;;-4.40;100.00
45872;BME280;32333;55.844;-3.210;2024-01-15T04:34:20;98949.44;;;-4.52;100.00
45872;BME280;32333;55.844;-3.210;2024-01-15T04:36:48;98947.40;;;-4.65;100.00
45872;BME280;32333;55.844;-3.210;2024-01-15T04:39:16;98942.46;;;-4.67;100.00
45872;BME280;32333;55.844;-3.210;2024-01-15T04:41:44;98939.06;;;-4.45;100.00
45872;BME280;32333;55.844;-3.210;2024-01-15T04:44:36;98933.95;;;-3.80;100.00
45872;BME280;32333;55.844;-3.210;2024-01-15T04:47:04;98937.62;;;-3.84;100.00
45872;BME280;32333;55.844;-3.210;2024-01-15T04:49:32;98943.08;;;-4.51;100.00
45872;BME280;32333;55.844;-3.210;2024-01-15T04:52:01;98939.77;;;-4.69;100.00
45872;BME280;32333;55.844;-3.210;2024-01-15T04:54:28;98940.19;;;-5.00;100.00
45872;BME280;32333;55.844;-3.210;2024-01-15T04:56:56;98939.59;;;-4.67;100.00
45872;BME280;32333;55.844;-3.210;2024-01-15T04:59:24;98947.98;;;-5.38;100.00
45872;BME280;32333;55.844;-3.210;2024-01-15T05:01:52;98940.75;;;-4.85;100.00
45872;BME280;32333;55.844;-3.210;2024-01-15T05:04:19;98941.41;;;-4.85;100.00
45872;BME280;32333;55.844;-3.210;2024-01-15T05:06:49;98939.04;;;-4.95;100.00
45872;BME280;32333;55.844;-3.210;2024-01-15T05:09:17;98941.06;;;-5.68;100.00
45872;BME280;32333;55.844;-3.210;2024-01-15T05:11:45;98935.73;;;-5.45;100.00
45872;BME280;32333;55.844;-3.210;2024-01-15T05:14:36;98940.55;;;-5.95;100.00
45872;BME280;32333;55.844;-3.210;2024-01-15T05:17:04;98941.77;;;-4.62;100.00
45872;BME280;32333;55.844;-3.210;2024-01-15T05:19:32;98955.13;;;-5.10;100.00
45872;BME280;32333;55.844;-3.210;2024-01-15T05:22:00;98959.94;;;-5.01;100.00
45872;BME280;32333;55.844;-3.210;2024-01-15T05:24:28;98966.74;;;-5.72;100.00
45872;BME280;32333;55.844;-3.210;2024-01-15T05:26:56;98970.60;;;-5.12;100.00
45872;BME280;32333;55.844;-3.210;2024-01-15T05:29:24;98972.61;;;-5.25;100.00
45872;BME280;32333;55.844;-3.210;2024-01-15T05:31:52;98978.27;;;-4.93;100.00
45872;BME280;32333;55.844;-3.210;2024-01-15T05:34:19;98973.52;;;-5.12;100.00
45872;BME280;32333;55.844;-3.210;2024-01-15T05:36:46;98979.33;;;-5.07;100.00
45872;BME280;32333;55.844;-3.210;2024-01-15T05:39:14;98983.51;;;-5.52;100.00
45872;BME280;32333;55.844;-3.210;2024-01-15T05:41:42;98982.75;;;-5.48;100.00
45872;BME280;32333;55.844;-3.210;2024-01-15T05:44:36;98979.67;;;-5.36;100.00
45872;BME280;32333;55.844;-3.210;2024-01-15T05:47:04;98978.17;;;-6.02;100.00
45872;BME280;32333;55.844;-3.210;2024-01-15T05:49:32;98973.79;;;-5.81;100.00
45872;BME280;32333;55.844;-3.210;2024-01-15T05:52:01;98967.05;;;-5.39;100.00
45872;BME280;32333;55.844;-3.210;2024-01-15T05:54:29;98969.13;;;-5.72;100.00
45872;BME280;32333;55.844;-3.210;2024-01-15T05:56:56;98969.29;;;-5.52;100.00
45872;BME280;32333;55.844;-3.210;2024-01-15T05:59:24;98966.09;;;-6.17;100.00
45872;BME280;32333;55.844;-3.210;2024-01-15T06:01:52;98960.97;;;-5.56;100.00
45872;BME280;32333;55.844;-3.210;2024-01-15T06:04:19;98950.81;;;-4.70;100.00
45872;BME280;32333;55.844;-3.210;2024-01-15T06:06:46;98950.24;;;-5.33;100.00
45872;BME280;32333;55.844;-3.210;2024-01-15T06:09:14;98955.04;;;-5.17;100.00
45872;BME280;32333;55.844;-3.210;2024-01-15T06:11:42;98953.35;;;-6.38;100.00
45872;BME280;32333;55.844;-3.210;2024-01-15T06:14:36;98949.43;;;-6.12;100.00
45872;BME280;32333;55.844;-3.210;2024-01-15T06:17:04;98945.42;;;-5.51;100.00
45872;BME280;32333;55.844;-3.210;2024-01-15T06:19:32;98944.91;;;-5.18;100.00
45872;BME280;32333;55.844;-3.210;2024-01-15T06:22:01;98940.85;;;-5.16;100.00
45872;BME280;32333;55.844;-3.210;2024-01-15T06:24:28;98936.23;;;-5.71;100.00
45872;BME280;32333;55.844;-3.210;2024-01-15T06:26:55;98936.02;;;-5.95;100.00
45872;BME280;32333;55.844;-3.210;2024-01-15T06:29:25;98942.23;;;-5.53;100.00
45872;BME280;32333;55.844;-3.210;2024-01-15T06:31:52;98945.72;;;-5.67;100.00
45872;BME280;32333;55.844;-3.210;2024-01-15T06:34:19;98947.32;;;-5.11;100.00
45872;BME280;32333;55.844;-3.210;2024-01-15T06:36:47;98950.49;;;-5.81;100.00
45872;BME280;32333;55.844;-3.210;2024-01-15T06:39:14;98958.01;;;-5.60;100.00
45872;BME280;32333;55.844;-3.210;2024-01-15T06:41:42;98960.82;;;-5.11;100.00
45872;BME280;32333;55.844;-3.210;2024-01-15T06:44:36;98956.07;;;-5.77;100.00
45872;BME280;32333;55.844;-3.210;2024-01-15T06:47:05;98962.41;;;-6.13;100.00
45872;BME280;32333;55.844;-3.210;2024-01-15T06:49:33;98967.90;;;-5.66;100.00
45872;BME280;32333;55.844;-3.210;2024-01-15T06:52:02;98968.08;;;-5.50;100.00
45872;BME280;32333;55.844;-3.210;2024-01-15T06:54:29;98967.14;;;-5.01;100.00
45872;BME280;32333;55.844;-3.210;2024-01-15T06:56:57;98960.44;;;-5.00;100.00
45872;BME280;32333;55.844;-3.210;2024-01-15T06:59:26;98970.21;;;-5.50;100.00
45872;BME280;32333;55.844;-3.210;2024-01-15T07:01:53;98972.11;;;-5.70;100.00
45872;BME280;32333;55.844;-3.210;2024-01-15T07:04:21;98972.35;;;-5.40;100.00
45872;BME280;32333;55.844;-3.210;2024-01-15T07:06:49;98966.20;;;-5.80;100.00
45872;BME280;32333;55.844;-3.210;2024-01-15T07:09:17;98963.45;;;-5.84;100.00
45872;BME280;32333;55.844;-3.210;2024-01-15T07:11:45;98961.90;;;-5.79;100.00
45872;BME280;32333;55.844;-3.210;2024-01-15T07:14:36;98970.38;;;-5.62;100.00
45872;BME280;32333;55.844;-3.210;2024-01-15T07:17:04;98975.46;;;-5.96;100.00
45872;BME280;32333;55.844;-3.210;2024-01-15T07:19:32;98974.46;;;-5.64;100.00
45872;BME280;32333;55.844;-3.210;2024-01-15T07:22:00;98978.82;;;-5.46;100.00
45872;BME280;32333;55.844;-3.210;2024-01-15T07:24:28;98980.55;;;-5.90;100.00
45872;BME280;32333;55.844;-3.210;2024-01-15T07:26:56;98986.08;;;-5.02;100.00
45872;BME280;32333;55.844;-3.210;2024-01-15T07:29:24;98988.08;;;-5.06;100.00
45872;BME280;32333;55.844;-3.210;2024-01-15T07:31:52;98981.38;;;-6.16;100.00
45872;BME280;32333;55.844;-3.210;2024-01-15T07:34:20;98986.54;;;-4.69;100.00
45872;BME280;32333;55.844;-3.210;2024-01-15T07:36:47;98989.74;;;-5.52;100.00
45872;BME280;32333;55.844;-3.210;2024-01-15T07:39:14;99000.96;;;-5.64;100.00
45872;BME280;32333;55.844;-3.210;2024-01-15T07:41:42;99004.21;;;-5.45;100.00
45872;BME280;32333;55.844;-3.210;2024-01-15T07:44:36;99001.58;;;-5.04;100.00
45872;BME280;32333;55.844;-3.210;2024-01-15T07:47:04;99006.94;;;-5.93;100.00
45872;BME280;32333;55.844;-3.210;2024-01-15T07:49:31;99004.15;;;-5.43;100.00
45872;BME280;32333;55.844;-3.210;2024-01-15T07:52:00;99002.01;;;-5.48;100.00
45872;BME280;32333;55.844;-3.210;2024-01-15T07:54:28;99009.01;;;-5.70;100.00
45872;BME280;32333;55.844;-3.210;2024-01-15T07:56:57;99004.21;;;-5.41;100.00
45872;BME280;32333;55.844;-3.210;2024-01-15T07:59:25;99009.22;;;-5.60;100.00
45872;BME280;32333;55.844;-3.210;2024-01-15T08:01:53;99004.91;;;-5.13;100.00
45872;BME280;32333;55.844;-3.210;2024-01-15T08:04:20;99002.17;;;-5.30;100.00
45872;BME280;32333;55.844;-3.210;2024-01-15T08:06:48;99001.74;;;-4.53;100.00
45872;BME280;32333;55.844;-3.210;2024-01-15T08:09:16;99001.06;;;-4.33;100.00
45872;BME280;32333;55.844;-3.210;2024-01-15T08:11:44;99008.18;;;-5.26;100.00
45872;BME280;32333;55.844;-3.210;2024-01-15T08:14:35;99010.97;;;-4.78;100.00
45872;BME280;32333;55.844;-3.210;2024-01-15T08:17:03;99013.87;;;-5.35;100.00
45872;BME280;32333;55.844;-3.210;2024-01-15T08:19:31;99007.48;;;-4.88;100.00
45872;BME280;32333;55.844;-3.210;2024-01-15T08:22:00;99015.27;;;-4.81;100.00
45872;BME280;32333;55.844;-3.210;2024-01-15T08:24:28;99016.85;;;-5.98;100.00
45872;BME280;32333;55.844;-3.210;2024-01-15T08:26:55;99025.43;;;-4.88;100.00
45872;BME280;32333;55.844;-3.210;2024-01-15T08:29:23;99020.16;;;-5.88;100.00
45872;BME280;32333;55.844;-3.210;2024-01-15T08:31:52;99016.75;;;-5.75;100.00
45872;BME280;32333;55.844;-3.210;2024-01-15T08:34:20;99012.41;;;-5.77;100.00
45872;BME280;32333;55.844;-3.210;2024-01-15T08:36:48;99012.97;;;-5.93;100.00
45872;BME280;32333;55.844;-3.210;2024-01-15T08:39:16;99017.23;;;-5.68;100.00
45872;BME280;32333;55.844;-3.210;2024-01-15T08:41:44;99012.56;;;-6.05;100.00
45872;BME280;32333;55.844;-3.210;2024-01-15T08:44:36;99010.95;;;-5.70;100.00
45872;BME280;32333;55.844;-3.210;2024-01-15T08:47:03;99015.67;;;-5.30;100.00
45872;BME280;32333;55.844;-3.210;2024-01-15T08:49:31;99013.19;;;-5.18;100.00
45872;BME280;32333;55.844;-3.210;2024-01-15T08:52:00;99021.74;;;-5.69;100.00
45872;BME280;32333;55.844;-3.210;2024-01-15T08:54:28;99016.05;;;-5.23;100.00
45872;BME280;32333;55.844;-3.210;2024-01-15T08:56:56;99018.52;;;-5.79;100.00
45872;BME280;32333;55.844;-3.210;2024-01-15T08:59:23;99016.27;;;-6.03;100.00
45872;BME280;32333;55.844;-3.210;2024-01-15T09:01:51;99018.28;;;-5.29;100.00
45872;BME280;32333;55.844;-3.210;2024-01-15T09:04:19;99019.58;;;-4.77;100.00
45872;BME280;32333;55.844;-3.210;2024-01-15T09:06:47;99007.90;;;-5.15;100.00
45872;BME280;32333;55.844;-3.210;2024-01-15T09:09:16;99019.36;;;-5.08;100.00
45872;BME280;32333;55.844;-3.210;2024-01-15T09:11:45;99020.25;;;-4.65;100.00
45872;BME280;32333;55.844;-3.210;2024-01-15T09:14:36;99030.24;;;-4.22;100.00
45872;BME280;32333;55.844;-3.210;2024-01-15T09:17:04;99030.62;;;-3.96;100.00
45872;BME280;32333;55.844;-3.210;2024-01-15T09:19:32;99033.47;;;-4.10;97.56
45872;BME280;32333;55.844;-3.210;2024-01-15T09:22:01;99037.34;;;-4.33;97.25
45872;BME280;32333;55.844;-3.210;2024-01-15T09:24:28;99043.45;;;-3.58;95.57
45872;BME280;32333;55.844;-3.210;2024-01-15T09:26:56;99048.14;;;-3.85;95.28
45872;BME280;32333;55.844;-3.210;2024-01-15T09:29:25;99059.00;;;-3.75;94.57
45872;BME280;32333;55.844;-3.210;2024-01-15T09:31:53;99054.38;;;-3.55;93.69
45872;BME280;32333;55.844;-3.210;2024-01-15T09:34:20;99058.81;;;-3.26;93.67
45872;BME280;32333;55.844;-3.210;2024-01-15T09:36:48;99048.22;;;-2.61;90.94
45872;BME280;32333;55.844;-3.210;2024-01-15T09:39:17;99050.46;;;-2.73;89.19
45872;BME280;32333;55.844;-3.210;2024-01-15T09:41:45;99046.69;;;-2.20;90.69
45872;BME280;32333;55.844;-3.210;2024-01-15T09:44:36;99048.01;;;-2.17;89.42
45872;BME280;32333;55.844;-3.210;2024-01-15T09:47:04;99051.89;;;-2.97;91.12
45872;BME280;32333;55.844;-3.210;2024-01-15T09:49:33;99044.05;;;-3.46;91.35
45872;BME280;32333;55.844;-3.210;2024-01-15T09:52:02;99047.04;;;-2.47;87.78
45872;BME280;32333;55.844;-3.210;2024-01-15T09:54:30;99045.97;;;-2.90;88.62
45872;BME280;32333;55.844;-3.210;2024-01-15T09:56:59;99051.26;;;-3.01;87.87
45872;BME280;32333;55.844;-3.210;2024-01-15T09:59:28;99054.11;;;-2.80;87.07
45872;BME280;32333;55.844;-3.210;2024-01-15T10:01:57;99052.40;;;-1.80;81.85
45872;BME280;32333;55.844;-3.210;2024-01-15T10:04:26;99052.20;;;-2.45;83.46
45872;BME280;32333;55.844;-3.210;2024-01-15T10:06:56;99045.30;;;-1.88;82.53
45872;BME280;32333;55.844;-3.210;2024-01-15T10:09:24;99041.79;;;-1.80;79.63
45872;BME280;32333;55.844;-3.210;2024-01-15T10:11:52;99043.14;;;-1.93;81.03
45872;BME280;32333;55.844;-3.210;2024-01-15T10:14:35;99057.44;;;-2.10;81.11
45872;BME280;32333;55.844;-3.210;2024-01-15T10:17:12;99058.44;;;-1.66;79.81
45872;BME280;32333;55.844;-3.210;2024-01-15T10:19:39;99066.84;;;-2.78;83.17
45872;BME280;32333;55.844;-3.210;2024-01-15T10:22:07;99073.03;;;-2.05;78.56
45872;BME280;32333;55.844;-3.210;2024-01-15T10:24:35;99070.49;;;-0.96;79.86
45872;BME280;32333;55.844;-3.210;2024-01-15T10:27:07;99076.28;;;-1.53;78.24
45872;BME280;32333;55.844;-3.210;2024-01-15T10:29:35;99073.89;;;-1.46;78.49
45872;BME280;32333;55.844;-3.210;2024-01-15T10:32:05;99069.64;;;-2.44;80.82
45872;BME280;32333;55.844;-3.210;2024-01-15T10:34:37;99074.20;;;-2.18;85.17
45872;BME280;32333;55.844;-3.210;2024-01-15T10:37:07;99077.61;;;-2.50;85.12
45872;BME280;32333;55.844;-3.210;2024-01-15T10:39:35;99086.22;;;-3.16;86.05
45872;BME280;32333;55.844;-3.210;2024-01-15T10:44:36;99098.01;;;-2.65;85.98
45872;BME280;32333;55.844;-3.210;2024-01-15T10:47:04;99098.41;;;-2.13;82.27
45872;BME280;32333;55.844;-3.210;2024-01-15T10:49:31;99104.09;;;-2.53;86.48
45872;BME280;32333;55.844;-3.210;2024-01-15T10:51:59;99101.35;;;-1.40;82.23
45872;BME280;32333;55.844;-3.210;2024-01-15T10:54:28;99107.43;;;-1.38;79.73
45872;BME280;32333;55.844;-3.210;2024-01-15T10:56:56;99117.75;;;-1.00;77.03
45872;BME280;32333;55.844;-3.210;2024-01-15T10:59:24;99113.08;;;-1.94;77.01
45872;BME280;32333;55.844;-3.210;2024-01-15T11:01:53;99116.48;;;-2.17;78.69
45872;BME280;32333;55.844;-3.210;2024-01-15T11:04:21;99115.66;;;-1.90;79.83
45872;BME280;32333;55.844;-3.210;2024-01-15T11:06:52;99117.07;;;-1.17;77.36
45872;BME280;32333;55.844;-3.210;2024-01-15T11:09:20;99117.37;;;-1.59;78.91
45872;BME280;32333;55.844;-3.210;2024-01-15T11:11:48;99119.89;;;-0.99;76.41
45872;BME280;32333;55.844;-3.210;2024-01-15T11:14:38;99114.93;;;-1.69;77.64
45872;BME280;32333;55.844;-3.210;2024-01-15T11:17:06;99117.07;;;-1.35;78.45
45872;BME280;32333;55.844;-3.210;2024-01-15T11:19:42;99114.93;;;-1.84;78.10
45872;BME280;32333;55.844;-3.210;2024-01-15T11:22:47;99110.05;;;-2.50;78.64
45872;BME280;32333;55.844;-3.210;2024-01-15T11:25:17;99115.55;;;-2.53;81.74
45872;BME280;32333;55.844;-3.210;2024-01-15T11:27:46;99109.18;;;-1.37;79.33
45872;BME280;32333;55.844;-3.210;2024-01-15T11:30:14;99107.32;;;-1.69;80.68
45872;BME280;32333;55.844;-3.210;2024-01-15T11:32:42;99105.60;;;-1.63;79.06
45872;BME280;32333;55.844;-3.210;2024-01-15T11:35:10;99110.52;;;-1.06;76.47
45872;BME280;32333;55.844;-3.210;2024-01-15T11:38:10;99107.96;;;-1.67;76.78
45872;BME280;32333;55.844;-3.210;2024-01-15T11:40:39;99104.73;;;-0.86;75.84
45872;BME280;32333;55.844;-3.210;2024-01-15T11:44:37;99103.56;;;-2.09;78.65
45872;BME280;32333;55.844;-3.210;2024-01-15T11:47:05;99101.07;;;-1.66;78.12
45872;BME280;32333;55.844;-3.210;2024-01-15T11:50:15;99101.85;;;-1.15;78.06
45872;BME280;32333;55.844;-3.210;2024-01-15T11:52:45;99104.08;;;-2.36;81.03
45872;BME280;32333;55.844;-3.210;2024-01-15T11:55:27;99102.26;;;-1.95;82.50
45872;BME280;32333;55.844;-3.210;2024-01-15T11:57:55;99096.17;;;-2.15;80.38
45872;BME280;32333;55.844;-3.210;2024-01-15T12:00:24;99095.43;;;-1.46;79.25
45872;BME280;32333;55.844;-3.210;2024-01-15T12:02:52;99090.67;;;-2.32;81.26
45872;BME280;32333;55.844;-3.210;2024-01-15T12:05:20;99096.38;;;-2.87;85.17
45872;BME280;32333;55.844;-3.210;2024-01-15T12:07:50;99098.04;;;-2.88;86.31
45872;BME280;32333;55.844;-3.210;2024-01-15T12:10:18;99094.03;;;-2.15;85.11
45872;BME280;32333;55.844;-3.210;2024-01-15T12:14:36;99091.63;;;-1.96;82.42
45872;BME280;32333;55.844;-3.210;2024-01-15T12:17:04;99094.36;;;-2.91;85.02
45872;BME280;32333;55.844;-3.210;2024-01-15T12:19:32;99092.86;;;-2.55;84.28
45872;BME280;32333;55.844;-3.210;2024-01-15T12:22:02;99092.29;;;-2.05;85.95
45872;BME280;32333;55.844;-3.210;2024-01-15T12:24:29;99089.05;;;-2.29;83.10
45872;BME280;32333;55.844;-3.210;2024-01-15T12:26:56;99092.94;;;-2.20;84.92
45872;BME280;32333;55.844;-3.210;2024-01-15T12:29:25;99088.15;;;-2.31;86.51
45872;BME280;32333;55.844;-3.210;2024-01-15T12:31:53;99086.62;;;-2.52;85.53
45872;BME280;32333;55.844;-3.210;2024-01-15T12:34:20;99089.76;;;-3.52;90.67
45872;BME280;32333;55.844;-3.210;2024-01-15T12:36:50;99092.10;;;-2.32;88.12
45872;BME280;32333;55.844;-3.210;2024-01-15T12:39:17;99093.24;;;-2.28;85.47
45872;BME280;32333;55.844;-3.210;2024-01-15T12:41:45;99094.18;;;-3.34;87.90
45872;BME280;32333;55.844;-3.210;2024-01-15T12:44:36;99096.56;;;-2.02;84.84
45872;BME280;32333;55.844;-3.210;2024-01-15T12:47:04;99091.17;;;-2.67;85.77
45872;BME280;32333;55.844;-3.210;2024-01-15T12:49:32;99085.83;;;-2.16;85.64
45872;BME280;32333;55.844;-3.210;2024-01-15T12:52:01;99082.52;;;-1.71;82.17
45872;BME280;32333;55.844;-3.210;2024-01-15T12:54:28;99088.08;;;-2.18;83.19
45872;BME280;32333;55.844;-3.210;2024-01-15T12:56:55;99087.22;;;-2.31;82.52
45872;BME280;32333;55.844;-3.210;2024-01-15T12:59:23;99079.54;;;-2.10;83.64
45872;BME280;32333;55.844;-3.210;2024-01-15T13:01:50;99080.34;;;-2.93;86.23
45872;BME280;32333;55.844;-3.210;2024-01-15T13:04:22;99086.05;;;-2.96;85.64